Time;durP1;ratioP1;P1;durP2;ratioP2;P2;SDS_P1;SDS_P2;PMS_P1;PMS_P2;Temp;Humidity;BMP_temperature;BMP_pressure;BME280_temperature;BME280_humidity;BME280_pressure;Samples;Min_cycle;Max_cycle;Signal;HPM_P1;HPM_P2
2021/10/15 00:01:45;;;;;;;7.47;3.77;;;12.50;99.90;;;;;;5013988;28;20677;-71
2021/10/15 00:04:10;;;;;;;5.37;3.70;;;12.40;99.90;;;;;;5008930;28;20177;-71
2021/10/15 00:06:36;;;;;;;7.30;4.97;;;12.40;99.90;;;;;;5013965;28;20170;-71
2021/10/15 00:09:02;;;;;;;4.23;3.83;;;12.30;99.90;;;;;;5013723;28;20661;-71
2021/10/15 00:11:27;;;;;;;6.87;4.07;;;12.30;99.90;;;;;;5013445;28;20165;-71
2021/10/15 00:13:53;;;;;;;8.83;4.90;;;12.20;99.90;;;;;;5014014;28;20168;-71
2021/10/15 00:16:18;;;;;;;7.60;4.10;;;12.20;99.90;;;;;;5013824;28;20158;-71
2021/10/15 00:18:44;;;;;;;9.60;5.30;;;12.20;99.90;;;;;;5013864;28;20284;-71
2021/10/15 00:21:09;;;;;;;6.63;4.20;;;12.10;99.90;;;;;;5014013;28;20738;-71
2021/10/15 00:23:35;;;;;;;8.70;4.97;;;12.10;99.90;;;;;;5013518;28;20192;-71
2021/10/15 00:26:01;;;;;;;7.67;4.93;;;12.10;99.90;;;;;;5013626;28;20168;-71
2021/10/15 00:28:27;;;;;;;8.10;4.90;;;12.10;99.90;;;;;;5013389;28;20193;-71
2021/10/15 00:30:56;;;;;;;5.50;4.40;;;12.10;99.90;;;;;;5013088;28;20979;-71
2021/10/15 00:33:22;;;;;;;10.33;5.37;;;12.10;99.90;;;;;;5013469;28;20154;-71
2021/10/15 00:35:47;;;;;;;9.87;5.80;;;12.10;99.90;;;;;;5013057;28;20454;-70
2021/10/15 00:38:13;;;;;;;8.07;5.37;;;12.10;99.90;;;;;;5014030;28;20235;-71
2021/10/15 00:40:39;;;;;;;6.60;4.60;;;12.10;99.90;;;;;;5013165;28;20177;-71
2021/10/15 00:43:04;;;;;;;9.53;5.20;;;12.10;99.90;;;;;;5013336;28;20169;-72
2021/10/15 00:45:30;;;;;;;7.00;5.43;;;12.10;99.90;;;;;;5013559;28;20159;-71
2021/10/15 00:47:56;;;;;;;7.20;5.50;;;12.10;99.90;;;;;;5013011;28;20280;-71
2021/10/15 00:50:21;;;;;;;9.17;6.10;;;12.10;99.90;;;;;;5013047;28;20169;-71
2021/10/15 00:52:47;;;;;;;6.07;4.63;;;12.10;99.90;;;;;;5013173;28;20157;-72
2021/10/15 00:55:12;;;;;;;8.20;5.07;;;12.10;99.90;;;;;;5013525;28;20584;-72
2021/10/15 00:57:38;;;;;;;7.70;4.90;;;12.10;99.90;;;;;;5013447;28;20195;-71
2021/10/15 01:00:05;;;;;;;6.30;4.67;;;12.10;99.90;;;;;;5012541;28;20174;-72
2021/10/15 01:02:30;;;;;;;5.97;4.50;;;12.10;99.90;;;;;;5012901;28;20657;-72
2021/10/15 01:04:56;;;;;;;7.87;5.73;;;12.10;99.90;;;;;;5012659;28;20448;-71
2021/10/15 01:07:23;;;;;;;7.67;5.07;;;12.10;99.90;;;;;;5013155;28;20200;-71
2021/10/15 01:09:50;;;;;;;7.53;6.10;;;12.10;99.90;;;;;;5012216;28;20194;-71
2021/10/15 01:12:16;;;;;;;6.27;3.83;;;12.10;99.90;;;;;;5023020;28;20569;-71
2021/10/15 01:14:42;;;;;;;8.63;4.53;;;12.10;99.90;;;;;;5032516;28;20403;-71
2021/10/15 01:17:07;;;;;;;8.50;4.93;;;12.10;99.90;;;;;;5032624;28;20387;-71
2021/10/15 01:19:33;;;;;;;5.73;4.10;;;12.10;99.90;;;;;;5032582;28;20279;-72
2021/10/15 01:22:02;;;;;;;7.27;4.63;;;12.00;99.90;;;;;;5014276;28;20185;-71
2021/10/15 01:24:28;;;;;;;11.40;4.53;;;12.00;99.90;;;;;;5012514;28;20427;-71
2021/10/15 01:26:54;;;;;;;7.67;4.50;;;12.00;99.90;;;;;;5012810;28;20396;-71
2021/10/15 01:29:19;;;;;;;7.77;4.53;;;12.00;99.90;;;;;;5013187;28;20351;-71
2021/10/15 01:31:45;;;;;;;8.83;5.30;;;11.90;99.90;;;;;;5012402;28;20201;-71
2021/10/15 01:34:10;;;;;;;6.20;5.37;;;11.90;99.90;;;;;;5012548;28;20168;-71
2021/10/15 01:36:36;;;;;;;6.33;4.40;;;11.80;99.90;;;;;;5012727;28;20165;-72
2021/10/15 01:39:02;;;;;;;6.50;5.10;;;11.80;99.90;;;;;;5012469;28;20173;-72
2021/10/15 01:41:28;;;;;;;11.23;5.27;;;11.70;99.90;;;;;;5012036;28;20184;-71
2021/10/15 01:43:53;;;;;;;7.63;5.10;;;11.70;99.90;;;;;;5012911;28;20420;-72
2021/10/15 01:46:19;;;;;;;6.27;5.00;;;11.60;99.90;;;;;;5013324;28;20268;-72
2021/10/15 01:48:45;;;;;;;7.93;5.07;;;11.60;99.90;;;;;;5012451;28;20216;-71
2021/10/15 01:51:11;;;;;;;6.90;5.20;;;11.60;99.90;;;;;;5012254;28;20215;-71
2021/10/15 01:53:36;;;;;;;10.37;5.10;;;11.50;99.90;;;;;;5012770;28;20181;-71
2021/10/15 01:56:02;;;;;;;5.90;4.70;;;11.50;99.90;;;;;;5012429;28;20173;-71
2021/10/15 01:58:28;;;;;;;7.53;5.07;;;11.50;99.90;;;;;;5012112;28;20729;-72
2021/10/15 02:00:54;;;;;;;12.77;5.70;;;11.40;99.90;;;;;;5012172;28;20356;-72
2021/10/15 02:03:19;;;;;;;7.93;5.13;;;11.40;99.90;;;;;;5011991;28;20204;-72
2021/10/15 02:05:46;;;;;;;8.97;5.60;;;11.40;99.90;;;;;;5012617;28;20177;-71
2021/10/15 02:08:11;;;;;;;9.93;5.07;;;11.30;99.90;;;;;;5012392;28;20217;-71
2021/10/15 02:10:37;;;;;;;7.33;5.03;;;11.30;99.90;;;;;;5011781;28;20443;-71
2021/10/15 02:13:03;;;;;;;9.67;5.90;;;11.20;99.90;;;;;;5012204;28;20166;-72
2021/10/15 02:15:28;;;;;;;7.43;5.10;;;11.20;99.90;;;;;;5013542;28;20154;-71
2021/10/15 02:17:54;;;;;;;6.93;5.27;;;11.20;99.90;;;;;;5016238;28;20166;-71
2021/10/15 02:20:20;;;;;;;8.47;6.20;;;11.10;99.90;;;;;;5025351;28;20220;-71
2021/10/15 02:22:47;;;;;;;6.10;5.50;;;11.10;99.90;;;;;;5015786;28;20169;-72
2021/10/15 02:25:15;;;;;;;9.30;5.63;;;11.00;99.90;;;;;;5016914;28;20400;-75
2021/10/15 02:27:41;;;;;;;8.37;5.67;;;11.00;99.90;;;;;;5015869;28;20805;-75
2021/10/15 02:30:09;;;;;;;6.67;5.27;;;11.00;99.90;;;;;;5015243;28;20463;-75
2021/10/15 02:32:35;;;;;;;10.60;6.13;;;10.90;99.90;;;;;;5015887;28;21002;-74
2021/10/15 02:35:01;;;;;;;7.27;5.70;;;10.90;99.90;;;;;;5015199;28;20408;-75
2021/10/15 02:37:26;;;;;;;8.57;5.33;;;10.90;99.90;;;;;;5015988;28;20201;-75
2021/10/15 02:39:52;;;;;;;9.00;6.13;;;10.80;99.90;;;;;;5015392;28;20416;-75
2021/10/15 02:42:17;;;;;;;10.37;6.33;;;10.80;99.90;;;;;;5015037;28;20181;-74
2021/10/15 02:44:43;;;;;;;7.60;6.40;;;10.80;99.90;;;;;;5015967;28;20172;-72
2021/10/15 02:47:09;;;;;;;8.17;5.27;;;10.80;99.90;;;;;;5015162;28;20519;-73
2021/10/15 02:49:34;;;;;;;8.47;6.57;;;10.70;99.90;;;;;;5015353;28;21017;-73
2021/10/15 02:52:00;;;;;;;14.10;6.77;;;10.70;99.90;;;;;;5015158;28;20169;-73
2021/10/15 02:54:25;;;;;;;7.43;5.87;;;10.70;99.90;;;;;;5016093;28;20609;-73
2021/10/15 02:56:51;;;;;;;13.83;7.20;;;10.70;99.90;;;;;;5015151;28;20534;-73
2021/10/15 02:59:16;;;;;;;11.13;6.50;;;10.60;99.90;;;;;;5014913;28;20168;-73
2021/10/15 03:01:42;;;;;;;11.57;6.83;;;10.70;99.90;;;;;;5014843;28;20196;-73
2021/10/15 03:04:08;;;;;;;9.70;6.53;;;10.70;99.90;;;;;;5015226;28;20201;-73
2021/10/15 03:06:34;;;;;;;8.20;6.50;;;10.70;99.90;;;;;;5015219;28;20164;-73
2021/10/15 03:09:01;;;;;;;9.40;6.50;;;10.70;99.90;;;;;;5015018;28;20189;-73
2021/10/15 03:11:26;;;;;;;8.00;6.63;;;10.70;99.90;;;;;;5015248;28;20945;-73
2021/10/15 03:13:52;;;;;;;12.63;6.90;;;10.80;99.90;;;;;;5015080;28;20471;-73
2021/10/15 03:16:18;;;;;;;7.40;6.07;;;10.80;99.90;;;;;;5015146;28;20166;-73
2021/10/15 03:18:43;;;;;;;7.40;6.20;;;10.80;99.90;;;;;;5015143;28;20170;-73
2021/10/15 03:21:09;;;;;;;8.70;6.60;;;10.90;99.90;;;;;;5014423;28;20268;-72
2021/10/15 03:23:34;;;;;;;10.07;6.97;;;10.90;99.90;;;;;;5014737;28;20158;-73
2021/10/15 03:26:00;;;;;;;7.37;5.87;;;11.00;99.90;;;;;;5014573;28;20157;-73
2021/10/15 03:28:25;;;;;;;7.87;6.53;;;11.00;99.90;;;;;;5026057;28;20220;-73
2021/10/15 03:30:51;;;;;;;7.83;5.93;;;11.00;99.90;;;;;;5024757;28;20251;-73
2021/10/15 03:33:16;;;;;;;8.20;5.70;;;11.00;99.90;;;;;;5014658;28;20186;-73
2021/10/15 03:35:42;;;;;;;13.43;6.90;;;11.00;99.90;;;;;;5014417;28;20189;-73
2021/10/15 03:38:07;;;;;;;8.97;6.40;;;11.00;99.90;;;;;;5014278;28;20239;-73
2021/10/15 03:40:33;;;;;;;7.83;5.70;;;11.00;99.90;;;;;;5014000;28;20177;-72
2021/10/15 03:42:59;;;;;;;7.37;6.10;;;11.00;99.90;;;;;;5014716;28;20244;-73
2021/10/15 03:45:24;;;;;;;7.97;5.77;;;11.00;99.90;;;;;;5026145;28;20267;-72
2021/10/15 03:47:50;;;;;;;6.70;6.00;;;11.00;99.90;;;;;;5028477;28;20535;-73
2021/10/15 03:50:15;;;;;;;7.23;6.30;;;11.00;99.90;;;;;;5014001;28;20192;-73
2021/10/15 03:52:41;;;;;;;8.97;6.03;;;11.00;99.90;;;;;;5014314;28;20173;-73
2021/10/15 03:55:09;;;;;;;9.90;5.60;;;11.00;99.90;;;;;;5014002;28;20173;-73
2021/10/15 03:57:35;;;;;;;7.57;6.30;;;11.00;99.90;;;;;;5014184;28;20185;-73
2021/10/15 04:00:03;;;;;;;8.07;6.13;;;11.00;99.90;;;;;;5013689;28;20431;-73
2021/10/15 04:02:28;;;;;;;9.27;6.30;;;11.10;99.90;;;;;;5014509;28;20936;-73
2021/10/15 04:04:54;;;;;;;8.57;6.03;;;11.10;99.90;;;;;;5013821;28;20483;-72
2021/10/15 04:07:19;;;;;;;6.30;5.43;;;11.10;99.90;;;;;;5013931;28;20161;-73
2021/10/15 04:09:45;;;;;;;6.23;5.63;;;11.10;99.90;;;;;;5013650;28;20193;-72
2021/10/15 04:12:10;;;;;;;6.37;5.60;;;11.10;99.90;;;;;;5013511;28;20615;-72
2021/10/15 04:14:36;;;;;;;6.50;5.80;;;11.10;99.90;;;;;;5013921;28;20161;-73
2021/10/15 04:17:02;;;;;;;7.80;5.73;;;11.10;99.90;;;;;;5014118;28;20165;-73
2021/10/15 04:19:27;;;;;;;11.60;6.87;;;11.10;99.90;;;;;;5025930;28;20279;-73
2021/10/15 04:21:53;;;;;;;8.30;5.40;;;11.10;99.90;;;;;;5017497;28;20264;-73
2021/10/15 04:24:18;;;;;;;7.70;6.53;;;11.10;99.90;;;;;;5013792;28;20181;-73
2021/10/15 04:26:44;;;;;;;8.87;5.73;;;11.10;99.90;;;;;;5013577;28;20717;-72
2021/10/15 04:29:09;;;;;;;7.50;6.80;;;11.10;99.90;;;;;;5013425;28;20205;-73
2021/10/15 04:31:35;;;;;;;8.40;5.90;;;11.20;99.90;;;;;;5013205;28;20194;-73
2021/10/15 04:34:00;;;;;;;8.40;5.97;;;11.20;99.90;;;;;;5013160;28;20166;-73
2021/10/15 04:36:26;;;;;;;9.30;6.07;;;11.20;99.90;;;;;;5013990;28;20518;-72
2021/10/15 04:38:52;;;;;;;7.93;6.57;;;11.20;99.90;;;;;;5012649;28;20169;-72
2021/10/15 04:41:17;;;;;;;7.33;5.80;;;11.20;99.90;;;;;;5013416;28;20232;-72
2021/10/15 04:43:43;;;;;;;7.43;5.90;;;11.20;99.90;;;;;;5013696;28;20659;-73
2021/10/15 04:46:09;;;;;;;8.80;6.97;;;11.20;99.90;;;;;;5013558;28;20154;-73
2021/10/15 04:48:34;;;;;;;9.63;7.20;;;11.30;99.90;;;;;;5013037;28;20455;-73
2021/10/15 04:51:00;;;;;;;8.73;6.67;;;11.20;99.90;;;;;;5013085;28;20154;-73
2021/10/15 04:53:25;;;;;;;6.50;5.60;;;11.30;99.90;;;;;;5024729;28;20699;-73
2021/10/15 04:55:51;;;;;;;10.13;6.37;;;11.30;99.90;;;;;;5033140;28;20200;-73
2021/10/15 04:58:17;;;;;;;8.37;5.73;;;11.20;99.90;;;;;;5032787;28;20520;-73
2021/10/15 05:00:42;;;;;;;13.80;5.50;;;11.20;99.90;;;;;;5017281;28;20189;-73
2021/10/15 05:03:08;;;;;;;11.27;6.80;;;11.20;99.90;;;;;;5013070;28;20177;-73
2021/10/15 05:05:34;;;;;;;7.20;6.10;;;11.20;99.90;;;;;;5013178;28;20158;-73
2021/10/15 05:08:00;;;;;;;7.00;6.20;;;11.20;99.90;;;;;;5013201;28;20237;-73
2021/10/15 05:10:28;;;;;;;8.33;6.83;;;11.30;99.90;;;;;;5012909;28;20595;-73
2021/10/15 05:12:55;;;;;;;7.03;6.33;;;11.30;99.90;;;;;;5013138;28;20459;-74
2021/10/15 05:15:21;;;;;;;7.63;5.50;;;11.30;99.90;;;;;;5013130;28;20936;-73
2021/10/15 05:17:47;;;;;;;6.63;5.87;;;11.30;99.90;;;;;;5013076;28;20755;-73
2021/10/15 05:20:16;;;;;;;11.33;6.37;;;11.30;99.90;;;;;;5012725;28;20424;-73
2021/10/15 05:22:43;;;;;;;7.00;6.30;;;11.30;99.90;;;;;;5012621;28;20416;-73
2021/10/15 05:25:09;;;;;;;8.33;6.27;;;11.30;99.90;;;;;;5012663;28;20768;-73
2021/10/15 05:27:35;;;;;;;6.50;5.80;;;11.30;99.90;;;;;;5013015;28;20492;-73
2021/10/15 05:30:01;;;;;;;10.80;6.97;;;11.30;99.90;;;;;;5012665;28;20558;-73
2021/10/15 05:32:27;;;;;;;9.37;6.60;;;11.30;99.90;;;;;;5012405;28;20807;-73
2021/10/15 05:34:53;;;;;;;9.83;6.00;;;11.30;99.90;;;;;;5012451;28;20181;-74
2021/10/15 05:37:18;;;;;;;7.30;6.47;;;11.30;99.90;;;;;;5012539;28;20508;-73
2021/10/15 05:39:44;;;;;;;10.37;7.93;;;11.30;99.90;;;;;;5012803;28;20177;-73
2021/10/15 05:42:10;;;;;;;8.63;6.50;;;11.30;99.90;;;;;;5012098;28;20204;-73
2021/10/15 05:44:36;;;;;;;10.53;6.73;;;11.20;99.90;;;;;;5013132;28;20185;-72
2021/10/15 05:47:05;;;;;;;9.97;6.87;;;11.20;99.90;;;;;;5012613;28;20400;-73
2021/10/15 05:49:32;;;;;;;7.37;6.30;;;11.20;99.90;;;;;;5012433;28;20189;-73
2021/10/15 05:52:17;;;;;;;9.67;6.57;;;11.20;99.90;;;;;;5016166;28;20444;-72
2021/10/15 05:54:50;;;;;;;10.97;6.57;;;11.30;99.90;;;;;;5016365;28;20396;-73
2021/10/15 05:57:29;;;;;;;8.40;6.43;;;11.30;99.90;;;;;;5016368;28;20408;-73
2021/10/15 05:59:56;;;;;;;7.97;7.23;;;11.30;99.90;;;;;;5016377;28;20431;-74
2021/10/15 06:02:21;;;;;;;13.30;7.27;;;11.30;99.90;;;;;;5016701;28;20787;-72
2021/10/15 06:08:59;;;;;;;12.03;6.80;;;11.30;99.90;;;;;;5029468;28;20184;-72
2021/10/15 06:15:50;;;;;;;6.93;6.20;;;11.30;99.90;;;;;;5015504;28;20832;-73
2021/10/15 06:18:18;;;;;;;10.73;7.20;;;11.40;99.90;;;;;;5026474;28;20412;-73
2021/10/15 06:20:44;;;;;;;7.00;6.30;;;11.30;99.90;;;;;;5032822;28;20428;-73
2021/10/15 06:23:10;;;;;;;11.20;6.23;;;11.30;99.90;;;;;;5016004;28;20395;-73
2021/10/15 06:25:36;;;;;;;11.27;7.00;;;11.40;99.90;;;;;;5015915;28;20753;-73
2021/10/15 06:28:03;;;;;;;8.50;5.97;;;11.40;99.90;;;;;;5015976;28;20384;-73
2021/10/15 06:30:30;;;;;;;8.73;7.00;;;11.40;99.90;;;;;;5015508;28;20513;-73
2021/10/15 06:32:56;;;;;;;10.30;6.70;;;11.40;99.90;;;;;;5015969;28;20411;-73
2021/10/15 06:35:22;;;;;;;8.50;6.73;;;11.40;99.90;;;;;;5024427;28;20419;-73
2021/10/15 06:37:48;;;;;;;7.97;6.43;;;11.40;99.90;;;;;;5015566;28;20239;-73
2021/10/15 06:40:13;;;;;;;8.43;6.67;;;11.50;99.90;;;;;;5015047;28;20689;-73
2021/10/15 06:42:39;;;;;;;8.33;6.13;;;11.40;99.90;;;;;;5014755;28;20449;-73
2021/10/15 06:45:05;;;;;;;9.07;6.40;;;11.50;99.90;;;;;;5015671;28;20161;-73
2021/10/15 06:47:31;;;;;;;9.07;6.40;;;11.50;99.90;;;;;;5015466;28;20181;-73
2021/10/15 06:49:57;;;;;;;7.53;5.77;;;11.50;99.90;;;;;;5015446;28;20446;-73
2021/10/15 06:52:23;;;;;;;9.40;6.90;;;11.50;99.90;;;;;;5015765;28;20312;-73
2021/10/15 06:54:49;;;;;;;11.43;6.27;;;11.60;99.90;;;;;;5015338;28;20389;-73
2021/10/15 06:57:14;;;;;;;10.40;7.00;;;11.60;99.90;;;;;;5015459;28;20400;-73
2021/10/15 06:59:40;;;;;;;11.70;6.50;;;11.60;99.90;;;;;;5008341;28;20402;-73
2021/10/15 07:02:06;;;;;;;10.60;6.33;;;11.60;99.90;;;;;;5011601;28;20181;-73
2021/10/15 07:04:31;;;;;;;11.17;6.47;;;11.60;99.90;;;;;;5015114;28;20261;-73
2021/10/15 07:06:57;;;;;;;6.97;6.30;;;11.70;99.90;;;;;;5015243;28;20248;-73
2021/10/15 07:09:22;;;;;;;9.40;6.80;;;11.70;99.90;;;;;;5015460;28;20201;-73
2021/10/15 07:11:48;;;;;;;11.43;6.43;;;11.70;99.90;;;;;;5014686;28;20169;-73
2021/10/15 07:14:15;;;;;;;8.10;6.37;;;11.80;99.90;;;;;;5014987;28;20169;-74
2021/10/15 07:16:40;;;;;;;7.47;6.77;;;11.80;99.90;;;;;;5015058;28;20154;-73
2021/10/15 07:19:07;;;;;;;8.90;6.50;;;11.90;99.90;;;;;;5013902;28;20738;-73
2021/10/15 07:21:32;;;;;;;8.20;6.10;;;12.00;99.90;;;;;;5014591;28;20764;-73
2021/10/15 07:23:58;;;;;;;13.47;7.00;;;12.00;99.90;;;;;;5013779;28;20629;-73
2021/10/15 07:26:24;;;;;;;10.17;6.90;;;12.10;99.90;;;;;;5026628;28;20199;-73
2021/10/15 07:28:50;;;;;;;9.40;7.63;;;12.10;99.90;;;;;;5034300;28;20466;-73
2021/10/15 07:31:16;;;;;;;9.60;6.63;;;12.20;99.90;;;;;;5026468;28;20194;-76
2021/10/15 07:33:42;;;;;;;7.13;5.73;;;12.20;99.90;;;;;;5014679;28;20400;-75
2021/10/15 07:36:07;;;;;;;7.43;5.90;;;12.20;99.90;;;;;;5014338;28;20408;-76
2021/10/15 07:38:33;;;;;;;9.03;5.40;;;12.30;99.90;;;;;;5018070;28;20649;-74
2021/10/15 07:40:58;;;;;;;8.23;6.27;;;12.30;99.90;;;;;;5029116;28;20170;-73
2021/10/15 07:43:24;;;;;;;9.33;6.33;;;12.40;99.90;;;;;;5026087;28;20260;-73
2021/10/15 07:45:49;;;;;;;7.27;6.33;;;12.40;99.90;;;;;;5034225;28;20622;-73
2021/10/15 07:48:15;;;;;;;6.83;5.90;;;12.40;99.90;;;;;;5024971;28;20225;-73
2021/10/15 07:50:41;;;;;;;21.43;7.40;;;12.40;99.90;;;;;;5014232;28;20161;-73
2021/10/15 07:53:06;;;;;;;8.03;6.53;;;12.40;99.90;;;;;;5014084;28;20528;-73
2021/10/15 07:55:32;;;;;;;8.57;6.13;;;12.50;99.90;;;;;;5013382;28;20299;-73
2021/10/15 07:57:57;;;;;;;12.03;6.87;;;12.50;99.90;;;;;;5014526;28;20166;-73
2021/10/15 08:00:23;;;;;;;12.37;7.77;;;12.50;99.90;;;;;;5025454;28;20188;-73
2021/10/15 08:02:50;;;;;;;9.83;6.23;;;12.50;99.90;;;;;;5014675;28;20192;-73
2021/10/15 08:05:17;;;;;;;7.27;5.77;;;12.50;99.90;;;;;;5014223;28;20180;-73
2021/10/15 08:07:44;;;;;;;10.30;6.80;;;12.50;99.90;;;;;;5014420;28;20404;-73
2021/10/15 08:10:10;;;;;;;8.60;7.07;;;12.50;99.90;;;;;;5013814;28;20448;-73
2021/10/15 08:12:37;;;;;;;10.00;5.60;;;12.50;99.90;;;;;;5012871;28;20941;-73
2021/10/15 08:15:05;;;;;;;6.73;6.03;;;12.50;99.90;;;;;;4994297;28;20484;-73
2021/10/15 08:17:31;;;;;;;7.80;6.03;;;12.50;99.90;;;;;;5008529;28;20742;-73
2021/10/15 08:19:56;;;;;;;9.60;5.80;;;12.50;99.90;;;;;;5013935;28;20432;-73
2021/10/15 08:22:22;;;;;;;6.47;5.80;;;12.50;99.90;;;;;;5013366;28;20232;-74
2021/10/15 08:24:47;;;;;;;8.20;6.90;;;12.50;99.90;;;;;;5013729;28;20216;-73
2021/10/15 08:27:13;;;;;;;7.60;5.60;;;12.50;99.90;;;;;;5013794;28;20185;-73
2021/10/15 08:29:39;;;;;;;7.57;5.97;;;12.60;99.90;;;;;;5013538;28;20219;-73
2021/10/15 08:32:06;;;;;;;8.30;6.10;;;12.60;99.90;;;;;;5013652;28;20197;-73
2021/10/15 08:34:32;;;;;;;9.83;6.70;;;12.60;99.90;;;;;;5012373;28;20422;-73
2021/10/15 08:36:58;;;;;;;9.67;6.70;;;12.60;99.90;;;;;;4993839;28;20432;-73
2021/10/15 08:39:27;;;;;;;8.73;6.43;;;12.60;99.90;;;;;;5013916;28;20935;-73
2021/10/15 08:41:53;;;;;;;7.40;6.60;;;12.60;99.90;;;;;;5014145;28;20172;-73
2021/10/15 08:44:19;;;;;;;7.17;6.37;;;12.60;99.90;;;;;;5013528;28;20397;-73
2021/10/15 08:46:45;;;;;;;10.00;7.90;;;12.70;99.90;;;;;;5013306;28;20416;-73
2021/10/15 08:49:11;;;;;;;10.50;7.37;;;12.70;99.90;;;;;;5013294;28;20193;-73
2021/10/15 08:51:38;;;;;;;9.47;6.87;;;12.70;99.90;;;;;;5013633;28;20720;-73
2021/10/15 08:54:04;;;;;;;7.93;7.13;;;12.70;99.90;;;;;;5013518;28;20393;-73
2021/10/15 08:56:31;;;;;;;14.40;7.53;;;12.80;99.90;;;;;;5013223;28;20400;-73
2021/10/15 08:58:59;;;;;;;9.97;7.13;;;12.80;99.90;;;;;;5013119;28;20396;-73
2021/10/15 09:01:27;;;;;;;8.70;6.90;;;12.90;99.90;;;;;;5012962;28;20459;-73
2021/10/15 09:04:08;;;;;;;9.67;6.87;;;12.90;99.90;;;;;;5013175;28;20404;-73
2021/10/15 09:06:37;;;;;;;10.40;6.93;;;12.90;99.90;;;;;;5013142;28;20956;-73
2021/10/15 09:09:04;;;;;;;13.30;6.70;;;12.90;99.90;;;;;;5013049;28;20455;-73
2021/10/15 09:17:11;;;;;;;11.52;7.60;;;12.90;99.90;;;;;;5109982;27;20532;-72
2021/10/15 09:27:45;;;;;;;10.40;9.27;;;12.90;99.90;;;;;;5070144;28;20509;-72
2021/10/15 09:30:15;;;;;;;13.33;9.20;;;12.90;99.90;;;;;;5069714;28;20386;-72
2021/10/15 09:32:45;;;;;;;10.87;9.07;;;12.90;99.90;;;;;;5050431;28;20420;-72
2021/10/15 09:35:13;;;;;;;11.17;8.70;;;12.80;99.90;;;;;;5047166;28;20419;-72
2021/10/15 09:37:42;;;;;;;17.17;8.57;;;12.70;99.90;;;;;;5049797;28;20395;-72
2021/10/15 09:40:26;;;;;;;14.03;9.40;;;12.70;99.90;;;;;;5049203;28;20470;-72
2021/10/15 09:42:56;;;;;;;12.23;9.43;;;12.60;99.90;;;;;;5049716;28;20497;-73
2021/10/15 09:45:23;;;;;;;11.37;10.17;;;12.60;99.90;;;;;;5049885;28;20872;-72
2021/10/15 09:47:53;;;;;;;13.70;10.17;;;12.60;99.90;;;;;;5049478;28;20426;-72
2021/10/15 09:50:21;;;;;;;11.27;10.17;;;12.50;99.90;;;;;;5049252;28;20396;-72
2021/10/15 09:52:49;;;;;;;11.13;9.70;;;12.50;99.90;;;;;;5049387;28;20982;-72
2021/10/15 09:57:53;;;;;;;11.40;10.20;;;12.50;99.90;;;;;;5070002;28;20528;-73
2021/10/15 10:00:24;;;;;;;12.20;10.90;;;12.50;99.90;;;;;;5069068;28;20775;-74
2021/10/15 10:02:50;;;;;;;13.57;12.10;;;12.50;99.90;;;;;;5069778;28;20398;-74
2021/10/15 10:05:18;;;;;;;12.20;10.80;;;12.50;99.90;;;;;;5070050;28;20468;-73
2021/10/15 10:07:46;;;;;;;14.70;13.23;;;12.50;99.90;;;;;;5069882;28;20448;-74
2021/10/15 10:10:14;;;;;;;14.00;12.50;;;12.50;99.90;;;;;;5069352;28;20383;-74
2021/10/15 10:12:43;;;;;;;14.60;13.03;;;12.50;99.90;;;;;;5069314;28;20390;-74
2021/10/15 10:15:11;;;;;;;15.17;13.60;;;12.50;99.90;;;;;;5068255;28;20895;-74
2021/10/15 10:18:00;;;;;;;16.00;14.23;;;12.60;99.90;;;;;;5049672;28;20439;-74
2021/10/15 10:20:29;;;;;;;19.57;17.10;;;12.60;99.90;;;;;;5050157;28;20388;-74
2021/10/15 10:23:20;;;;;;;18.77;17.07;;;12.60;99.90;;;;;;5069618;28;20413;-74
2021/10/15 10:25:45;;;;;;;19.83;17.77;;;12.60;99.90;;;;;;5068066;28;20418;-74
2021/10/15 10:28:14;;;;;;;20.17;18.17;;;12.60;99.90;;;;;;5069483;28;20398;-74
2021/10/15 10:30:43;;;;;;;19.47;17.67;;;12.70;99.90;;;;;;5066544;28;20160;-74
2021/10/15 10:33:08;;;;;;;18.20;16.30;;;12.70;99.90;;;;;;5049250;28;20926;-73
2021/10/15 10:35:35;;;;;;;20.50;18.40;;;12.80;99.90;;;;;;5046699;28;20419;-74
2021/10/15 10:46:24;;;;;;;16.63;15.03;;;12.90;99.90;;;;;;5069761;28;20599;-72
2021/10/15 10:51:29;;;;;;;12.30;11.20;;;13.30;99.90;;;;;;5115031;27;20654;-73
2021/10/15 10:56:50;;;;;;;8.07;7.27;;;13.50;99.90;;;;;;5069340;28;20513;-71
2021/10/15 11:01:58;;;;;;;5.93;5.33;;;13.60;99.90;;;;;;5069687;28;20599;-71
2021/10/15 11:07:09;;;;;;;6.20;4.60;;;13.70;99.90;;;;;;5059369;28;20514;-73
2021/10/15 11:09:56;;;;;;;5.70;4.13;;;13.80;99.90;;;;;;5049919;28;20403;-72
2021/10/15 11:15:21;;;;;;;4.30;3.23;;;13.80;99.90;;;;;;5069363;28;20611;-72
2021/10/15 11:17:48;;;;;;;5.87;3.97;;;13.80;99.90;;;;;;5069587;28;20393;-73
2021/10/15 11:20:19;;;;;;;4.23;3.60;;;13.80;99.90;;;;;;5068961;28;20187;-73
2021/10/15 11:25:39;;;;;;;4.33;2.33;;;13.90;99.90;;;;;;5069952;28;20603;-73
2021/10/15 11:28:08;;;;;;;3.40;2.50;;;14.00;99.90;;;;;;5070028;28;20473;-73
2021/10/15 11:30:37;;;;;;;3.20;2.13;;;14.00;99.90;;;;;;5067779;28;20438;-73
2021/10/15 11:33:06;;;;;;;2.90;2.20;;;14.10;99.90;;;;;;5050086;28;20817;-73
2021/10/15 11:35:33;;;;;;;3.77;2.33;;;14.20;99.90;;;;;;5049824;28;20442;-74
2021/10/15 11:38:09;;;;;;;2.03;1.83;;;14.30;99.90;;;;;;5049788;28;20392;-73
2021/10/15 11:51:18;;;;;;;4.03;1.70;;;14.30;99.90;;;;;;5069587;28;20673;-72
2021/10/15 11:53:48;;;;;;;2.63;1.57;;;14.20;99.90;;;;;;5069978;28;20406;-73
2021/10/15 11:56:19;;;;;;;2.90;2.07;;;14.10;99.90;;;;;;5069855;28;20774;-73
2021/10/15 12:01:27;;;;;;;3.40;1.60;;;14.20;99.90;;;;;;5129892;27;20525;-73
2021/10/15 12:11:52;;;;;;;6.20;2.77;;;14.10;99.90;;;;;;5086132;27;20526;-72
2021/10/15 12:19:51;;;;;;;3.43;2.60;;;14.10;99.90;;;;;;5109813;27;20518;-73
2021/10/15 12:24:57;;;;;;;2.57;1.73;;;14.00;99.90;;;;;;5069253;28;20538;-72
2021/10/15 12:27:26;;;;;;;3.93;2.57;;;14.00;99.90;;;;;;5069527;28;20413;-72
2021/10/15 12:32:34;;;;;;;6.87;3.10;;;14.00;99.90;;;;;;5056791;28;20579;-72
2021/10/15 12:48:28;;;;;;;4.83;2.63;;;13.40;99.90;;;;;;5065610;28;20537;-72
2021/10/15 12:53:46;;;;;;;5.57;2.90;;;13.30;99.90;;;;;;5069880;28;20594;-73
2021/10/15 12:56:16;;;;;;;5.50;3.07;;;13.30;99.90;;;;;;5070082;28;20828;-74
2021/10/15 13:01:29;;;;;;;4.10;1.97;;;13.30;99.90;;;;;;5115036;27;20524;-72
2021/10/15 13:03:56;;;;;;;7.17;2.13;;;13.30;99.90;;;;;;5109959;28;20780;-72
2021/10/15 13:06:22;;;;;;;3.70;1.83;;;13.30;99.90;;;;;;5096840;28;20499;-72
2021/10/15 13:08:50;;;;;;;2.90;1.80;;;13.30;99.90;;;;;;5089568;28;20443;-72
2021/10/15 13:11:19;;;;;;;3.50;1.80;;;13.30;99.90;;;;;;5105161;28;20988;-72
2021/10/15 13:13:46;;;;;;;4.60;2.30;;;13.20;99.90;;;;;;5110283;28;20436;-73
2021/10/15 13:16:12;;;;;;;1.90;1.30;;;13.20;99.90;;;;;;5109893;28;20894;-72
2021/10/15 13:18:38;;;;;;;6.97;2.47;;;13.10;99.90;;;;;;5109715;28;20388;-72
2021/10/15 13:21:03;;;;;;;6.67;4.03;;;13.10;99.90;;;;;;5109211;28;20447;-72
2021/10/15 13:23:31;;;;;;;4.80;3.30;;;13.00;99.90;;;;;;5096987;28;20206;-72
2021/10/15 13:25:56;;;;;;;9.63;4.93;;;13.00;99.90;;;;;;5089488;28;20632;-72
2021/10/15 13:28:22;;;;;;;8.67;4.67;;;12.90;99.90;;;;;;5089215;28;20443;-72
2021/10/15 13:30:48;;;;;;;5.10;2.60;;;12.90;99.90;;;;;;5096616;28;20164;-72
2021/10/15 13:33:18;;;;;;;2.17;1.70;;;12.80;99.90;;;;;;5109395;28;20652;-72
2021/10/15 13:35:47;;;;;;;4.77;1.73;;;12.80;99.90;;;;;;5109312;28;20406;-72
2021/10/15 13:38:15;;;;;;;8.23;1.93;;;12.70;99.90;;;;;;5109583;28;20419;-72
2021/10/15 13:46:27;;;;;;;7.10;2.20;;;12.70;99.90;;;;;;5069257;28;20542;-72
2021/10/15 13:51:38;;;;;;;3.50;2.10;;;12.60;99.90;;;;;;5068464;28;20488;-72
2021/10/15 13:54:05;;;;;;;5.93;2.70;;;12.60;99.90;;;;;;5069536;28;20497;-72
2021/10/15 13:56:31;;;;;;;1.70;1.60;;;12.60;99.90;;;;;;5065121;28;20291;-72
2021/10/15 13:59:04;;;;;;;4.00;1.70;;;12.60;99.90;;;;;;5049134;28;20894;-72
2021/10/15 14:01:35;;;;;;;5.10;1.93;;;12.60;99.90;;;;;;5056717;28;20504;-72
2021/10/15 14:06:36;;;;;;;6.17;1.97;;;12.70;99.90;;;;;;5069693;28;20534;-71
2021/10/15 14:09:02;;;;;;;5.70;2.00;;;12.70;99.90;;;;;;5069675;28;20408;-72
2021/10/15 14:11:27;;;;;;;3.43;1.87;;;12.70;99.90;;;;;;5064977;28;20689;-71
2021/10/15 14:13:53;;;;;;;2.93;1.57;;;12.80;99.90;;;;;;5061654;28;20279;-72
2021/10/15 14:16:19;;;;;;;5.03;2.07;;;12.90;99.90;;;;;;5049494;28;20164;-71
2021/10/15 14:18:46;;;;;;;6.10;2.30;;;13.00;99.90;;;;;;5049462;28;20160;-71
2021/10/15 14:21:12;;;;;;;4.50;2.43;;;13.10;99.90;;;;;;5052989;28;20168;-71
2021/10/15 14:23:38;;;;;;;8.87;2.30;;;13.20;99.90;;;;;;5068919;28;20392;-71
2021/10/15 14:26:05;;;;;;;5.33;1.43;;;13.30;99.90;;;;;;5069285;28;20441;-71
2021/10/15 14:28:31;;;;;;;2.40;1.37;;;13.40;99.90;;;;;;5069174;28;20394;-71
2021/10/15 14:30:57;;;;;;;3.53;1.60;;;13.50;99.90;;;;;;5062513;28;20521;-72
2021/10/15 14:33:23;;;;;;;4.40;1.63;;;13.50;99.90;;;;;;5069103;28;20510;-71